Terminal Aerodrome Forecast
Issued by NWS Wakefield, VA

Home | Current Version | Previous Version | Text Only | Print | Product List | Glossary On
Versions: 1 2 3 4 5 6 7 8 9 10 11 12 13 14
374
FTUS41 KAKQ 221120
TAFECG
TAF
KECG 221120Z 2212/2312 16004KT P6SM OVC070
     FM230500 19003KT 5SM BR BKN050=

USA.gov is the U.S. government's official web portal to all federal, state and local government web resources and services.